Time;durP1;ratioP1;P1;durP2;ratioP2;P2;SDS_P1;SDS_P2;PMS_P1;PMS_P2;Temp;Humidity;BMP_temperature;BMP_pressure;BME280_temperature;BME280_humidity;BME280_pressure;Samples;Min_cycle;Max_cycle;Signal;HPM_P1;HPM_P2
2022/05/14 00:00:24;;;;;;;1.70;1.60;;;20.50;44.00;;;;;;5060257;28;20441;-58
2022/05/14 00:02:51;;;;;;;1.80;1.70;;;20.50;44.00;;;;;;5063364;28;20493;-58
2022/05/14 00:05:20;;;;;;;1.67;1.57;;;20.50;44.00;;;;;;5059259;28;20515;-57
2022/05/14 00:07:47;;;;;;;2.00;1.90;;;20.50;44.00;;;;;;5060360;28;20534;-57
2022/05/14 00:10:14;;;;;;;1.50;1.40;;;20.50;44.10;;;;;;5060446;28;20459;-58
2022/05/14 00:15:25;;;;;;;1.80;1.70;;;20.50;44.00;;;;;;5058124;28;20419;-58
2022/05/14 00:17:51;;;;;;;2.00;1.90;;;20.50;44.00;;;;;;5056379;28;20546;-58
2022/05/14 00:20:17;;;;;;;1.60;1.50;;;20.50;44.00;;;;;;5061200;28;20466;-58
2022/05/14 00:22:43;;;;;;;1.73;1.63;;;20.50;44.00;;;;;;5059345;28;20540;-57
2022/05/14 00:25:09;;;;;;;1.77;1.67;;;20.50;44.00;;;;;;5059716;28;20432;-57
2022/05/14 00:27:41;;;;;;;1.70;1.60;;;20.50;44.00;;;;;;5057372;28;20230;-58
2022/05/14 00:30:07;;;;;;;1.60;1.50;;;20.50;44.00;;;;;;5056736;28;20460;-57
2022/05/14 00:32:33;;;;;;;1.60;1.50;;;20.50;44.00;;;;;;5058619;28;20816;-57
2022/05/14 00:34:58;;;;;;;1.73;1.63;;;20.50;44.00;;;;;;5061002;28;20443;-58
2022/05/14 00:37:24;;;;;;;1.67;1.57;;;20.50;44.00;;;;;;5060355;28;20710;-57
2022/05/14 00:39:49;;;;;;;1.63;1.53;;;20.50;44.00;;;;;;5057683;28;20671;-57
2022/05/14 00:42:15;;;;;;;1.57;1.47;;;20.50;44.10;;;;;;5056615;28;20249;-57
2022/05/14 00:44:40;;;;;;;1.80;1.70;;;20.50;44.00;;;;;;5061169;28;20218;-57
2022/05/14 00:47:14;;;;;;;1.40;1.30;;;20.50;44.00;;;;;;5062660;28;20222;-58
2022/05/14 00:49:40;;;;;;;1.53;1.43;;;20.50;44.00;;;;;;5061326;28;20267;-57
2022/05/14 00:52:12;;;;;;;1.80;1.70;;;20.50;44.10;;;;;;5058259;28;20422;-57
2022/05/14 00:54:54;;;;;;;1.60;1.50;;;20.50;44.00;;;;;;5056655;28;20218;-57
2022/05/14 00:57:25;;;;;;;1.77;1.67;;;20.50;44.10;;;;;;5059183;28;20907;-57
2022/05/14 00:59:51;;;;;;;2.07;1.97;;;20.50;44.10;;;;;;5056441;28;20536;-57
2022/05/14 01:02:17;;;;;;;1.47;1.37;;;20.40;44.00;;;;;;5059551;28;23049;-57
2022/05/14 01:04:44;;;;;;;1.47;1.37;;;20.40;44.00;;;;;;5058464;28;20846;-57
2022/05/14 01:07:15;;;;;;;2.00;1.90;;;20.50;44.10;;;;;;5061014;28;20478;-57
2022/05/14 01:09:44;;;;;;;1.80;1.70;;;20.40;44.00;;;;;;5056937;28;20420;-57
2022/05/14 01:12:11;;;;;;;1.70;1.60;;;20.40;44.00;;;;;;5059373;28;20487;-57
2022/05/14 01:14:37;;;;;;;1.90;1.80;;;20.50;44.10;;;;;;5057362;28;20463;-58
2022/05/14 01:17:03;;;;;;;2.93;2.07;;;20.40;44.00;;;;;;5063293;28;20450;-57
2022/05/14 01:19:29;;;;;;;1.80;1.70;;;20.40;44.00;;;;;;5057175;28;20236;-58
2022/05/14 01:22:03;;;;;;;1.70;1.60;;;20.40;44.00;;;;;;5055896;28;20964;-58
2022/05/14 01:27:35;;;;;;;2.13;2.03;;;20.40;44.00;;;;;;5057083;28;20934;-58
2022/05/14 01:30:01;;;;;;;1.60;1.50;;;20.40;44.10;;;;;;5055157;28;20452;-57
2022/05/14 01:32:27;;;;;;;1.60;1.50;;;20.40;44.00;;;;;;5058345;28;20910;-57
2022/05/14 01:34:52;;;;;;;1.90;1.80;;;20.40;44.10;;;;;;5061213;28;20877;-57
2022/05/14 01:37:18;;;;;;;1.73;1.63;;;20.40;44.10;;;;;;5062432;28;20222;-58
2022/05/14 01:39:44;;;;;;;1.60;1.50;;;20.40;44.10;;;;;;5061591;28;20263;-57
2022/05/14 01:42:09;;;;;;;1.70;1.60;;;20.40;44.00;;;;;;5056406;28;20230;-57
2022/05/14 01:44:35;;;;;;;2.60;1.70;;;20.40;44.10;;;;;;5060283;28;20221;-58
2022/05/14 01:47:01;;;;;;;1.60;1.50;;;20.40;44.10;;;;;;5061643;28;20257;-57
2022/05/14 01:49:27;;;;;;;1.50;1.40;;;20.40;44.10;;;;;;5059406;28;20309;-57
2022/05/14 01:51:54;;;;;;;1.73;1.63;;;20.40;44.00;;;;;;5057449;28;20221;-57
2022/05/14 01:54:19;;;;;;;1.80;1.70;;;20.40;44.00;;;;;;5058083;28;20321;-57
2022/05/14 01:56:45;;;;;;;1.30;1.20;;;20.40;44.10;;;;;;5054547;28;20538;-57
2022/05/14 01:59:11;;;;;;;2.17;1.93;;;20.40;44.10;;;;;;5058301;28;20222;-58
2022/05/14 02:01:38;;;;;;;1.50;1.40;;;20.40;44.50;;;;;;5057706;28;20218;-57
2022/05/14 02:04:10;;;;;;;1.63;1.53;;;20.40;44.10;;;;;;5056568;28;20456;-57
2022/05/14 02:06:37;;;;;;;1.87;1.77;;;20.40;44.10;;;;;;5054468;28;20440;-58
2022/05/14 02:09:05;;;;;;;1.60;1.50;;;20.40;44.10;;;;;;5058393;28;20951;-57
2022/05/14 02:11:31;;;;;;;1.67;1.57;;;20.40;44.10;;;;;;5056528;28;20924;-57
2022/05/14 02:13:56;;;;;;;1.70;1.60;;;20.40;44.10;;;;;;5054158;28;20526;-57
2022/05/14 02:16:22;;;;;;;1.63;1.53;;;20.40;44.10;;;;;;5058667;28;20215;-58
2022/05/14 02:18:48;;;;;;;1.70;1.60;;;20.40;44.10;;;;;;5062228;28;20224;-57
2022/05/14 02:21:15;;;;;;;1.60;1.50;;;20.40;44.10;;;;;;5063518;28;20455;-57
2022/05/14 02:23:41;;;;;;;1.70;1.60;;;20.40;44.10;;;;;;5064678;28;20449;-57
2022/05/14 02:26:10;;;;;;;1.60;1.50;;;20.40;44.10;;;;;;5061516;28;20421;-56
2022/05/14 02:28:36;;;;;;;1.80;1.70;;;20.40;44.10;;;;;;5062124;28;20453;-57
2022/05/14 02:31:02;;;;;;;1.80;1.70;;;20.40;44.10;;;;;;5064504;28;20525;-57
2022/05/14 02:33:28;;;;;;;1.70;1.60;;;20.40;44.20;;;;;;5059970;28;20430;-58
2022/05/14 02:35:54;;;;;;;1.60;1.50;;;20.40;44.20;;;;;;5062252;28;20494;-58
2022/05/14 02:38:20;;;;;;;1.60;1.50;;;20.40;44.10;;;;;;5058380;28;20229;-57
2022/05/14 02:40:46;;;;;;;1.70;1.60;;;20.40;44.10;;;;;;5059627;28;20227;-57
2022/05/14 02:43:12;;;;;;;1.67;1.57;;;20.40;44.20;;;;;;5057675;28;20249;-57
2022/05/14 02:45:37;;;;;;;1.60;1.50;;;20.40;44.20;;;;;;5061885;28;20457;-57
2022/05/14 02:48:03;;;;;;;1.60;1.50;;;20.40;44.20;;;;;;5062331;28;20653;-57
2022/05/14 02:50:29;;;;;;;1.60;1.50;;;20.40;44.20;;;;;;5058997;28;20236;-58
2022/05/14 02:52:55;;;;;;;1.73;1.63;;;20.40;44.20;;;;;;5064718;28;20442;-58
2022/05/14 02:55:21;;;;;;;1.70;1.60;;;20.40;44.20;;;;;;5060594;28;20289;-57
2022/05/14 02:57:47;;;;;;;1.60;1.50;;;20.40;44.20;;;;;;5064859;28;20575;-57
2022/05/14 03:00:16;;;;;;;1.60;1.50;;;20.40;44.20;;;;;;5061135;28;20508;-57
2022/05/14 03:02:43;;;;;;;1.80;1.70;;;20.40;44.20;;;;;;5061140;28;20241;-57
2022/05/14 03:05:09;;;;;;;1.90;1.80;;;20.40;44.20;;;;;;5061430;28;20457;-57
2022/05/14 03:07:35;;;;;;;1.70;1.60;;;20.40;44.20;;;;;;5062844;28;20442;-57
2022/05/14 03:10:01;;;;;;;1.60;1.50;;;20.40;44.20;;;;;;5059489;28;20447;-57
2022/05/14 03:12:27;;;;;;;1.70;1.60;;;20.40;44.20;;;;;;5063295;28;20417;-57
2022/05/14 03:14:52;;;;;;;1.60;1.50;;;20.40;44.20;;;;;;5059783;28;20496;-57
2022/05/14 03:17:18;;;;;;;1.57;1.47;;;20.40;44.20;;;;;;5060492;28;20253;-58
2022/05/14 03:19:44;;;;;;;1.70;1.60;;;20.40;44.20;;;;;;5059223;28;20235;-57
2022/05/14 03:22:11;;;;;;;1.60;1.50;;;20.40;44.20;;;;;;5058975;28;20459;-58
2022/05/14 03:24:36;;;;;;;1.60;1.50;;;20.40;44.20;;;;;;5059454;28;20443;-57
2022/05/14 03:27:07;;;;;;;1.50;1.40;;;20.40;44.30;;;;;;5057769;28;20478;-57
2022/05/14 03:29:34;;;;;;;1.60;1.50;;;20.40;44.20;;;;;;5061673;28;20267;-58
2022/05/14 03:31:59;;;;;;;1.60;1.50;;;20.40;44.20;;;;;;5060828;28;20458;-57
2022/05/14 03:34:26;;;;;;;1.40;1.30;;;20.40;44.20;;;;;;5044187;28;20459;-57
2022/05/14 03:36:51;;;;;;;1.87;1.77;;;20.40;44.20;;;;;;5087811;28;20226;-57
2022/05/14 03:39:17;;;;;;;1.70;1.60;;;20.40;44.50;;;;;;5058552;28;21382;-57
2022/05/14 03:41:44;;;;;;;1.60;1.50;;;20.40;44.20;;;;;;5060941;28;20221;-57
2022/05/14 03:44:10;;;;;;;1.57;1.47;;;20.40;44.20;;;;;;5066935;28;20420;-57
2022/05/14 03:46:35;;;;;;;1.63;1.53;;;20.40;44.20;;;;;;5058630;28;20430;-57
2022/05/14 03:49:01;;;;;;;1.60;1.50;;;20.40;44.30;;;;;;5062037;28;20954;-57
2022/05/14 03:51:28;;;;;;;1.60;1.50;;;20.40;44.20;;;;;;5064512;28;20222;-57
2022/05/14 03:53:54;;;;;;;1.63;1.53;;;20.40;44.30;;;;;;5060157;28;20642;-58
2022/05/14 03:56:20;;;;;;;1.50;1.40;;;20.40;44.30;;;;;;5061942;28;20511;-58
2022/05/14 03:58:46;;;;;;;1.47;1.37;;;20.40;44.30;;;;;;5056685;28;20215;-57
2022/05/14 04:01:12;;;;;;;1.40;1.30;;;20.40;44.30;;;;;;5033545;28;20468;-57
2022/05/14 04:03:37;;;;;;;2.70;1.60;;;20.40;44.20;;;;;;5090543;28;20456;-57
2022/05/14 04:06:04;;;;;;;1.60;1.50;;;20.40;44.20;;;;;;5061358;28;20210;-58
2022/05/14 04:08:29;;;;;;;1.60;1.50;;;20.40;44.20;;;;;;5058377;28;20556;-57
2022/05/14 04:10:55;;;;;;;1.40;1.30;;;20.40;44.20;;;;;;5059863;28;21000;-58
2022/05/14 04:13:21;;;;;;;1.40;1.30;;;20.40;44.30;;;;;;5061584;28;20703;-57
2022/05/14 04:15:48;;;;;;;1.50;1.40;;;20.40;44.20;;;;;;5058198;28;20423;-57
2022/05/14 04:18:13;;;;;;;1.40;1.30;;;20.40;44.30;;;;;;5058831;28;20588;-57
2022/05/14 04:20:39;;;;;;;1.50;1.40;;;20.40;44.30;;;;;;5043485;28;20449;-57
2022/05/14 04:23:09;;;;;;;1.87;1.70;;;20.40;44.30;;;;;;5081691;28;20233;-59
2022/05/14 04:25:34;;;;;;;1.60;1.50;;;20.40;44.30;;;;;;5059643;28;20215;-59
2022/05/14 04:28:00;;;;;;;1.50;1.40;;;20.30;44.20;;;;;;5058781;28;20871;-58
2022/05/14 04:30:26;;;;;;;1.53;1.43;;;20.30;44.20;;;;;;5061236;28;20222;-58
2022/05/14 04:32:51;;;;;;;1.40;1.30;;;20.40;44.20;;;;;;5059570;28;20249;-58
2022/05/14 04:35:18;;;;;;;1.50;1.40;;;20.40;44.20;;;;;;5057434;28;20221;-57
2022/05/14 04:37:43;;;;;;;1.77;1.67;;;20.40;44.30;;;;;;5058830;28;20294;-58
2022/05/14 04:40:10;;;;;;;1.73;1.63;;;20.40;44.20;;;;;;5056873;28;20533;-58
2022/05/14 04:42:38;;;;;;;1.50;1.40;;;20.40;44.20;;;;;;5059349;28;20260;-58
2022/05/14 04:45:08;;;;;;;1.67;1.57;;;20.40;44.20;;;;;;5058683;28;20469;-58
2022/05/14 04:47:34;;;;;;;1.50;1.40;;;20.40;44.30;;;;;;5058294;28;20773;-58
2022/05/14 04:50:00;;;;;;;1.50;1.40;;;20.40;44.30;;;;;;5059736;28;20463;-57
2022/05/14 04:52:26;;;;;;;1.40;1.30;;;20.40;44.20;;;;;;5057205;28;20424;-58
2022/05/14 04:54:51;;;;;;;1.70;1.60;;;20.40;44.20;;;;;;5063936;28;20703;-58
2022/05/14 04:57:17;;;;;;;1.40;1.30;;;20.40;44.20;;;;;;5060343;28;20269;-58
2022/05/14 04:59:42;;;;;;;1.50;1.40;;;20.40;44.20;;;;;;5055633;28;20226;-57
2022/05/14 05:04:54;;;;;;;1.40;1.30;;;20.40;44.20;;;;;;5028917;28;20248;-57
2022/05/14 05:07:20;;;;;;;1.47;1.37;;;20.40;44.20;;;;;;5062890;28;20445;-58
2022/05/14 05:09:46;;;;;;;1.57;1.47;;;20.40;44.20;;;;;;5056442;28;20222;-57
2022/05/14 05:12:11;;;;;;;1.53;1.43;;;20.40;44.20;;;;;;5056755;28;20272;-57
2022/05/14 05:14:37;;;;;;;1.40;1.30;;;20.40;44.20;;;;;;5052886;28;20426;-57
2022/05/14 05:17:03;;;;;;;1.43;1.33;;;20.40;44.20;;;;;;5057542;28;20228;-57
2022/05/14 05:19:30;;;;;;;1.70;1.60;;;20.40;44.20;;;;;;5064770;28;20648;-57
2022/05/14 05:21:56;;;;;;;1.67;1.57;;;20.40;44.20;;;;;;5058603;28;20439;-58
2022/05/14 05:24:22;;;;;;;2.20;1.60;;;20.40;44.10;;;;;;5058677;28;20479;-57
2022/05/14 05:26:47;;;;;;;1.50;1.40;;;20.40;44.10;;;;;;5056962;28;20222;-57
2022/05/14 05:29:13;;;;;;;2.10;1.43;;;20.40;44.20;;;;;;5059259;28;20266;-57
2022/05/14 05:31:39;;;;;;;1.50;1.40;;;20.40;44.20;;;;;;5059840;28;20220;-57
2022/05/14 05:34:05;;;;;;;1.60;1.50;;;20.40;44.20;;;;;;5058216;28;20679;-57
2022/05/14 05:36:31;;;;;;;1.60;1.50;;;20.40;45.00;;;;;;5056188;28;20638;-58
2022/05/14 05:38:58;;;;;;;1.67;1.57;;;20.30;44.10;;;;;;5057151;28;20846;-57
2022/05/14 05:41:25;;;;;;;1.60;1.50;;;20.30;44.10;;;;;;5060120;28;20475;-57
2022/05/14 05:43:51;;;;;;;2.07;1.80;;;20.30;44.10;;;;;;5059263;28;20406;-58
2022/05/14 05:46:16;;;;;;;1.63;1.53;;;20.30;44.10;;;;;;5057668;28;20421;-57
2022/05/14 05:48:43;;;;;;;1.43;1.33;;;20.30;44.10;;;;;;5058639;28;20213;-57
2022/05/14 05:51:09;;;;;;;1.40;1.30;;;20.30;44.90;;;;;;5060290;28;20671;-58
2022/05/14 05:59:05;;;;;;;1.57;1.47;;;20.30;44.10;;;;;;5058754;28;20500;-58
2022/05/14 06:01:31;;;;;;;2.17;1.57;;;20.30;44.10;;;;;;5062486;28;20465;-57
2022/05/14 06:03:57;;;;;;;1.50;1.40;;;20.30;44.10;;;;;;5060098;28;21130;-57
2022/05/14 06:06:23;;;;;;;1.30;1.20;;;20.40;44.10;;;;;;5061467;28;20225;-57
2022/05/14 06:08:49;;;;;;;1.40;1.30;;;20.40;44.10;;;;;;5063929;28;20434;-58
2022/05/14 06:11:15;;;;;;;1.40;1.30;;;20.40;44.10;;;;;;5063744;28;20430;-57
2022/05/14 06:13:43;;;;;;;1.23;1.13;;;20.40;44.10;;;;;;5060238;28;20223;-57
2022/05/14 06:16:09;;;;;;;1.30;1.20;;;20.40;44.10;;;;;;5064515;28;20426;-58
2022/05/14 06:18:34;;;;;;;1.27;1.17;;;20.40;44.10;;;;;;5063649;28;20459;-58
2022/05/14 06:21:00;;;;;;;1.47;1.37;;;20.40;44.10;;;;;;5061951;28;20502;-58
2022/05/14 06:23:26;;;;;;;1.93;1.40;;;20.40;44.10;;;;;;5064788;28;20679;-58
2022/05/14 06:25:51;;;;;;;2.67;1.40;;;20.40;44.10;;;;;;5061846;28;20233;-58
2022/05/14 06:28:17;;;;;;;1.10;1.10;;;20.40;44.10;;;;;;5060702;28;20232;-58
2022/05/14 06:30:43;;;;;;;1.50;1.40;;;20.40;44.10;;;;;;5059891;28;20313;-57
2022/05/14 06:33:10;;;;;;;1.50;1.40;;;20.40;44.10;;;;;;5058698;28;20288;-58
2022/05/14 06:35:37;;;;;;;1.50;1.40;;;20.40;44.00;;;;;;5060986;28;20436;-58
2022/05/14 06:38:04;;;;;;;1.40;1.30;;;20.40;44.00;;;;;;5060764;28;20425;-59
2022/05/14 06:40:31;;;;;;;1.50;1.40;;;20.40;44.10;;;;;;5060231;28;20485;-58
2022/05/14 06:42:56;;;;;;;1.50;1.40;;;20.40;44.00;;;;;;5064694;28;20465;-58
2022/05/14 06:45:22;;;;;;;1.40;1.30;;;20.40;44.00;;;;;;5060210;28;20474;-58
2022/05/14 06:47:48;;;;;;;1.40;1.30;;;20.40;44.00;;;;;;5058787;28;20222;-58
2022/05/14 06:50:14;;;;;;;1.40;1.30;;;20.40;44.80;;;;;;5062732;28;21012;-58
2022/05/14 06:52:44;;;;;;;1.50;1.40;;;20.40;44.00;;;;;;5061226;28;20682;-58
2022/05/14 06:55:13;;;;;;;1.57;1.47;;;20.40;43.90;;;;;;5062198;28;20217;-59
2022/05/14 06:57:38;;;;;;;1.60;1.50;;;20.40;43.90;;;;;;5057571;28;20439;-59
2022/05/14 07:00:05;;;;;;;1.30;1.20;;;20.50;44.00;;;;;;5062991;28;20874;-58
2022/05/14 07:02:32;;;;;;;1.57;1.47;;;20.50;44.00;;;;;;5064711;28;20256;-58
2022/05/14 07:07:43;;;;;;;1.53;1.43;;;20.50;44.00;;;;;;5057087;28;20483;-58
2022/05/14 07:10:08;;;;;;;1.43;1.20;;;20.40;43.90;;;;;;5060222;28;20426;-58
2022/05/14 07:12:34;;;;;;;1.53;1.43;;;20.40;43.90;;;;;;5064161;28;20306;-58
2022/05/14 07:15:01;;;;;;;1.40;1.30;;;20.40;44.00;;;;;;5062530;28;20253;-58
2022/05/14 07:17:27;;;;;;;1.40;1.30;;;20.40;44.80;;;;;;5060772;28;20254;-58
2022/05/14 07:19:53;;;;;;;1.10;1.10;;;20.50;44.10;;;;;;5060550;28;20822;-58
2022/05/14 07:22:20;;;;;;;1.50;1.40;;;20.40;44.00;;;;;;5060100;28;20256;-58
2022/05/14 07:24:46;;;;;;;1.50;1.40;;;20.40;44.00;;;;;;5057743;28;20452;-57
2022/05/14 07:27:12;;;;;;;1.77;1.60;;;20.40;44.00;;;;;;5059967;28;20477;-57
2022/05/14 07:29:40;;;;;;;1.40;1.30;;;20.40;43.90;;;;;;5062690;28;20234;-58
2022/05/14 07:32:11;;;;;;;1.47;1.37;;;20.40;44.00;;;;;;5060266;28;20447;-57
2022/05/14 07:34:37;;;;;;;1.50;1.33;;;20.40;44.00;;;;;;5062219;28;20435;-58
2022/05/14 07:37:20;;;;;;;1.27;1.17;;;20.40;44.00;;;;;;5095813;28;20955;-57
2022/05/14 07:39:51;;;;;;;1.60;1.50;;;20.40;43.90;;;;;;5061403;28;20483;-57
2022/05/14 07:42:22;;;;;;;1.50;1.40;;;20.40;43.90;;;;;;5058049;28;20475;-57
2022/05/14 07:44:52;;;;;;;2.13;1.30;;;20.40;44.00;;;;;;5057549;28;20941;-59
2022/05/14 07:47:18;;;;;;;1.40;1.30;;;20.40;43.90;;;;;;5057089;28;20437;-57
2022/05/14 07:49:45;;;;;;;1.60;1.50;;;20.40;44.00;;;;;;5056264;28;20440;-58
2022/05/14 07:52:13;;;;;;;1.50;1.40;;;20.40;44.00;;;;;;5058138;28;20584;-57
2022/05/14 07:54:39;;;;;;;1.67;1.57;;;20.40;44.00;;;;;;5062336;28;20986;-58
2022/05/14 07:57:06;;;;;;;1.33;1.23;;;20.40;44.00;;;;;;5058267;28;20809;-57
2022/05/14 07:59:33;;;;;;;1.60;1.50;;;20.40;44.00;;;;;;5061240;28;20463;-57
2022/05/14 08:01:59;;;;;;;1.40;1.30;;;20.40;44.00;;;;;;5090206;28;21002;-57
2022/05/14 08:04:24;;;;;;;1.40;1.30;;;20.40;44.00;;;;;;5064369;28;20447;-58
2022/05/14 08:06:50;;;;;;;2.33;1.60;;;20.40;43.90;;;;;;5059479;28;20252;-57
2022/05/14 08:09:16;;;;;;;1.40;1.30;;;20.40;44.00;;;;;;5059079;28;20229;-57
2022/05/14 08:11:41;;;;;;;1.70;1.60;;;20.40;43.90;;;;;;5056421;28;20611;-58
2022/05/14 08:14:07;;;;;;;1.40;1.30;;;20.40;44.00;;;;;;5058161;28;20271;-58
2022/05/14 08:16:32;;;;;;;1.60;1.50;;;20.40;44.00;;;;;;5059410;28;20226;-58
2022/05/14 08:18:58;;;;;;;1.43;1.33;;;20.40;44.00;;;;;;5061448;28;20231;-57
2022/05/14 08:26:53;;;;;;;1.83;1.73;;;20.40;44.00;;;;;;5062708;28;20508;-58
2022/05/14 08:29:20;;;;;;;1.60;1.50;;;20.40;44.00;;;;;;5056391;28;20454;-58
2022/05/14 08:31:45;;;;;;;1.40;1.30;;;20.40;44.00;;;;;;5057311;28;20778;-59
2022/05/14 08:34:11;;;;;;;1.60;1.50;;;20.40;43.90;;;;;;5059881;28;20819;-57
2022/05/14 08:36:37;;;;;;;1.90;1.80;;;20.40;43.90;;;;;;5057702;28;20587;-57
2022/05/14 08:39:03;;;;;;;1.50;1.40;;;20.40;44.00;;;;;;5045085;28;20307;-58
2022/05/14 08:41:31;;;;;;;1.67;1.57;;;20.40;44.00;;;;;;5082366;28;20538;-61
2022/05/14 08:44:03;;;;;;;1.73;1.40;;;20.40;43.90;;;;;;5057197;28;20245;-58
2022/05/14 08:46:30;;;;;;;1.50;1.40;;;20.40;43.90;;;;;;5055465;28;20494;-58
2022/05/14 08:49:03;;;;;;;1.57;1.47;;;20.40;43.90;;;;;;5061814;28;20503;-58
2022/05/14 08:51:33;;;;;;;1.63;1.53;;;20.40;43.90;;;;;;5062087;28;20445;-58
2022/05/14 08:53:59;;;;;;;1.50;1.40;;;20.40;43.90;;;;;;5061294;28;20451;-58
2022/05/14 08:57:15;;;;;;;1.47;1.37;;;20.40;43.90;;;;;;5057694;28;20478;-58
2022/05/14 08:59:59;;;;;;;1.80;1.70;;;20.40;43.90;;;;;;5055056;28;20521;-58
2022/05/14 09:02:36;;;;;;;1.80;1.70;;;20.40;43.90;;;;;;5058698;28;20467;-59
2022/05/14 09:05:05;;;;;;;1.70;1.50;;;20.40;43.90;;;;;;5056595;28;20422;-58
2022/05/14 09:07:31;;;;;;;1.40;1.30;;;20.40;43.90;;;;;;5058414;28;20441;-58
2022/05/14 09:09:58;;;;;;;1.70;1.60;;;20.40;43.90;;;;;;5061214;28;20479;-57
2022/05/14 09:12:30;;;;;;;1.60;1.50;;;20.40;44.70;;;;;;5058178;28;20221;-58
2022/05/14 09:14:59;;;;;;;1.57;1.47;;;20.40;43.90;;;;;;5060770;28;20986;-58
2022/05/14 09:17:29;;;;;;;1.60;1.50;;;20.40;43.90;;;;;;5061754;28;20442;-59
2022/05/14 09:19:55;;;;;;;1.53;1.43;;;20.40;43.90;;;;;;5059495;28;20468;-59
2022/05/14 09:22:44;;;;;;;1.60;1.50;;;20.40;43.90;;;;;;5059074;28;20450;-58
2022/05/14 09:25:26;;;;;;;1.70;1.60;;;20.40;43.90;;;;;;5057910;28;20952;-58
2022/05/14 09:27:59;;;;;;;1.73;1.63;;;20.40;43.90;;;;;;5060713;28;20452;-57
2022/05/14 09:30:43;;;;;;;1.60;1.50;;;20.40;44.00;;;;;;5054449;28;20462;-57
2022/05/14 09:33:34;;;;;;;1.63;1.53;;;20.40;43.90;;;;;;5055764;28;20458;-58
2022/05/14 09:36:01;;;;;;;1.50;1.40;;;20.40;44.00;;;;;;5059957;28;20451;-58
2022/05/14 09:38:29;;;;;;;2.07;1.90;;;20.40;44.00;;;;;;5054943;28;20429;-58
2022/05/14 09:41:07;;;;;;;1.70;1.60;;;20.40;44.00;;;;;;5056291;28;20528;-57
2022/05/14 09:43:36;;;;;;;1.63;1.53;;;20.40;44.00;;;;;;5056334;28;20807;-57
2022/05/14 09:46:23;;;;;;;2.20;2.10;;;20.40;44.00;;;;;;5053244;28;20449;-58
2022/05/14 09:48:53;;;;;;;1.70;1.60;;;20.40;44.00;;;;;;5056609;28;20439;-58
2022/05/14 09:51:30;;;;;;;1.70;1.60;;;20.40;44.00;;;;;;5089767;28;20447;-58
2022/05/14 09:54:26;;;;;;;1.70;1.60;;;20.40;44.00;;;;;;5061202;28;20525;-58
2022/05/14 09:57:10;;;;;;;2.03;1.93;;;20.40;44.00;;;;;;5056314;28;20447;-58
2022/05/14 10:00:00;;;;;;;2.30;2.10;;;20.40;44.00;;;;;;5059012;28;20445;-57
2022/05/14 10:02:51;;;;;;;1.60;1.50;;;20.40;44.00;;;;;;5054457;28;20459;-58
2022/05/14 10:05:52;;;;;;;2.00;1.90;;;20.40;44.00;;;;;;5062622;28;20418;-58
2022/05/14 10:08:40;;;;;;;2.33;1.50;;;20.40;44.00;;;;;;5043221;28;20459;-57
2022/05/14 10:11:23;;;;;;;1.87;1.77;;;20.40;44.00;;;;;;5056124;28;20556;-58
2022/05/14 10:14:32;;;;;;;1.67;1.57;;;20.40;44.00;;;;;;5057937;28;20452;-58
2022/05/14 10:17:18;;;;;;;1.80;1.70;;;20.40;44.00;;;;;;5056331;28;20820;-58
2022/05/14 10:20:05;;;;;;;1.77;1.67;;;20.40;44.00;;;;;;5057016;28;20491;-58
2022/05/14 10:28:55;;;;;;;2.10;2.00;;;20.40;44.10;;;;;;5056136;28;20535;-58
2022/05/14 10:31:35;;;;;;;3.70;2.40;;;20.40;44.10;;;;;;5058718;28;20425;-58
2022/05/14 10:34:07;;;;;;;1.90;1.80;;;20.40;44.10;;;;;;5055167;28;20451;-58
2022/05/14 10:36:58;;;;;;;2.70;2.50;;;20.40;44.20;;;;;;5053516;28;20451;-58
2022/05/14 10:39:44;;;;;;;3.27;2.07;;;20.40;44.10;;;;;;5064087;28;20430;-58
2022/05/14 10:42:30;;;;;;;1.93;1.83;;;20.40;44.10;;;;;;5056105;28;20474;-58
2022/05/14 10:45:08;;;;;;;2.50;2.30;;;20.40;44.10;;;;;;5059497;28;20488;-58
2022/05/14 10:47:38;;;;;;;2.10;1.90;;;20.40;44.10;;;;;;5059054;28;20876;-58
2022/05/14 10:50:14;;;;;;;2.17;2.07;;;20.40;44.10;;;;;;5059304;28;20459;-58
2022/05/14 10:52:41;;;;;;;2.50;2.40;;;20.40;44.10;;;;;;5057442;28;20450;-59
2022/05/14 10:55:18;;;;;;;2.20;2.10;;;20.40;44.10;;;;;;5060236;28;20466;-58
2022/05/14 10:57:48;;;;;;;2.10;2.00;;;20.40;44.10;;;;;;5056619;28;20451;-58
2022/05/14 11:00:29;;;;;;;2.40;2.30;;;20.40;44.10;;;;;;5062176;28;20474;-57
2022/05/14 11:03:04;;;;;;;2.37;2.17;;;20.40;44.10;;;;;;5059313;28;20459;-59
2022/05/14 11:05:31;;;;;;;2.40;2.20;;;20.40;44.10;;;;;;5058194;28;20458;-58
2022/05/14 11:08:11;;;;;;;2.30;2.10;;;20.40;44.10;;;;;;5062191;28;20443;-58
2022/05/14 11:10:37;;;;;;;2.50;2.40;;;20.40;44.10;;;;;;5059097;28;20446;-58
2022/05/14 11:13:15;;;;;;;2.10;2.00;;;20.40;44.10;;;;;;5066709;28;20490;-58
2022/05/14 11:15:43;;;;;;;2.53;2.33;;;20.40;44.10;;;;;;5060748;28;20954;-58
2022/05/14 11:18:17;;;;;;;2.53;2.43;;;20.40;44.10;;;;;;5063796;28;21006;-58
2022/05/14 11:21:00;;;;;;;2.30;2.20;;;20.40;44.10;;;;;;5060192;28;20460;-57
2022/05/14 11:23:26;;;;;;;2.60;2.30;;;20.40;44.20;;;;;;5062102;28;20489;-58
2022/05/14 11:26:14;;;;;;;2.70;2.60;;;20.40;44.10;;;;;;5065269;28;20442;-58
2022/05/14 11:28:40;;;;;;;3.00;2.80;;;20.40;44.10;;;;;;5058480;28;20440;-58
2022/05/14 11:31:21;;;;;;;3.00;2.80;;;20.40;44.20;;;;;;5058588;28;20452;-58
2022/05/14 11:33:49;;;;;;;2.80;2.60;;;20.40;44.10;;;;;;5059139;28;20213;-58
2022/05/14 11:36:24;;;;;;;2.43;2.33;;;20.40;44.20;;;;;;5064399;28;20444;-57
2022/05/14 11:39:22;;;;;;;2.93;2.63;;;20.40;44.20;;;;;;5059530;28;20435;-59
2022/05/14 11:41:50;;;;;;;2.83;2.63;;;20.40;44.10;;;;;;5058402;28;20590;-58
2022/05/14 11:44:43;;;;;;;2.63;2.53;;;20.40;44.20;;;;;;5059759;28;20451;-59
2022/05/14 11:47:41;;;;;;;2.97;2.77;;;20.40;44.10;;;;;;5067614;28;20451;-57
2022/05/14 11:50:07;;;;;;;3.17;2.97;;;20.40;44.20;;;;;;5056492;28;20426;-57
2022/05/14 11:52:55;;;;;;;3.00;2.80;;;20.40;44.20;;;;;;5062154;28;20443;-58
2022/05/14 11:55:28;;;;;;;3.80;3.50;;;20.40;44.20;;;;;;5063729;28;21094;-57
2022/05/14 11:58:04;;;;;;;3.07;2.87;;;20.40;44.20;;;;;;5064954;28;20446;-57
2022/05/14 12:00:33;;;;;;;3.13;2.93;;;20.40;44.20;;;;;;5058713;28;20430;-57
2022/05/14 12:03:12;;;;;;;2.90;2.70;;;20.40;44.20;;;;;;5060374;28;20450;-57
2022/05/14 12:05:55;;;;;;;3.03;2.83;;;20.40;44.20;;;;;;5055597;28;20456;-58
2022/05/14 12:08:51;;;;;;;3.10;2.90;;;20.40;44.20;;;;;;5061500;28;20835;-57
2022/05/14 12:11:38;;;;;;;3.10;2.90;;;20.40;44.20;;;;;;5057026;28;20475;-57
2022/05/14 12:14:11;;;;;;;3.20;3.00;;;20.40;44.30;;;;;;5062390;28;20429;-57
2022/05/14 12:16:50;;;;;;;3.50;3.30;;;20.40;44.30;;;;;;5061834;28;20576;-57
2022/05/14 12:19:29;;;;;;;3.40;3.20;;;20.40;44.30;;;;;;5056351;28;20447;-57
2022/05/14 12:22:07;;;;;;;3.20;3.00;;;20.40;44.20;;;;;;5060516;28;20451;-57
2022/05/14 12:24:38;;;;;;;3.60;3.40;;;20.40;44.20;;;;;;5064194;28;20917;-57
2022/05/14 12:27:15;;;;;;;3.63;3.40;;;20.40;44.30;;;;;;5059839;28;20446;-57
2022/05/14 12:29:54;;;;;;;3.53;3.27;;;20.40;44.30;;;;;;5058630;28;20451;-57
2022/05/14 12:35:22;;;;;;;3.30;3.10;;;20.40;45.10;;;;;;5058802;28;20453;-58
2022/05/14 12:37:52;;;;;;;4.20;4.00;;;20.40;44.30;;;;;;5061804;28;20452;-58
2022/05/14 12:40:35;;;;;;;3.90;3.70;;;20.40;44.30;;;;;;5054184;28;20458;-58
2022/05/14 12:43:04;;;;;;;4.20;3.90;;;20.40;44.30;;;;;;5061495;28;20858;-57
2022/05/14 12:45:42;;;;;;;4.13;3.83;;;20.40;44.30;;;;;;5060634;28;20857;-57
2022/05/14 12:48:10;;;;;;;4.10;3.80;;;20.40;44.30;;;;;;5057469;28;21135;-58
2022/05/14 12:50:40;;;;;;;4.27;3.87;;;20.40;44.30;;;;;;5056003;28;20454;-58
2022/05/14 12:53:11;;;;;;;3.70;3.50;;;20.40;44.30;;;;;;5055943;28;20945;-57
2022/05/14 12:55:44;;;;;;;3.73;3.53;;;20.40;44.30;;;;;;5057855;28;20451;-58
2022/05/14 12:58:10;;;;;;;3.97;3.67;;;20.40;44.30;;;;;;5058432;28;20447;-57
2022/05/14 13:00:38;;;;;;;4.30;4.10;;;20.40;44.30;;;;;;5059070;28;20520;-57
2022/05/14 13:03:11;;;;;;;3.93;3.73;;;20.40;44.20;;;;;;5060291;28;20492;-57
2022/05/14 13:05:41;;;;;;;3.70;3.50;;;20.40;44.30;;;;;;5057891;28;20454;-57
2022/05/14 13:08:10;;;;;;;4.97;4.57;;;20.40;44.30;;;;;;5059227;28;20425;-57
2022/05/14 13:10:37;;;;;;;4.53;4.23;;;20.40;44.20;;;;;;5060495;28;20442;-57
2022/05/14 13:13:07;;;;;;;3.90;3.60;;;20.40;44.30;;;;;;5056457;28;20433;-58
2022/05/14 13:15:42;;;;;;;5.07;3.97;;;20.40;44.20;;;;;;5060429;28;20450;-58
2022/05/14 13:18:24;;;;;;;4.20;4.00;;;20.40;44.30;;;;;;5062109;28;20454;-57
2022/05/14 13:21:05;;;;;;;5.27;4.87;;;20.40;44.20;;;;;;5058346;28;20483;-57
2022/05/14 13:23:32;;;;;;;4.77;4.37;;;20.40;44.20;;;;;;5059782;28;20410;-58
2022/05/14 13:26:10;;;;;;;4.40;4.10;;;20.40;44.30;;;;;;5055956;28;20641;-60
2022/05/14 13:28:39;;;;;;;5.30;4.90;;;20.40;44.30;;;;;;5057479;28;20473;-57
2022/05/14 13:31:22;;;;;;;5.00;4.70;;;20.40;44.30;;;;;;5059956;28;20566;-57
2022/05/14 13:37:07;;;;;;;5.57;5.13;;;20.40;44.30;;;;;;5057181;28;20488;-59